Time;durP1;ratioP1;P1;durP2;ratioP2;P2;SDS_P1;SDS_P2;PMS_P1;PMS_P2;Temp;Humidity;BMP_temperature;BMP_pressure;BME280_temperature;BME280_humidity;BME280_pressure;Samples;Min_cycle;Max_cycle;Signal;HPM_P1;HPM_P2
2022/12/18 00:02:20;;;;;;;0.00;0.00;;;;;;;-5.90;97.96;101810.81;5070383;28;20569;-76
2022/12/18 00:04:45;;;;;;;0.77;0.50;;;;;;;-5.84;98.19;101792.28;5070328;28;20269;-77
2022/12/18 00:07:10;;;;;;;2.07;1.77;;;;;;;-5.70;97.98;101802.22;5070523;28;20238;-76
2022/12/18 00:09:36;;;;;;;2.03;1.70;;;;;;;-5.47;98.30;101806.81;5069360;28;20204;-76
2022/12/18 00:12:01;;;;;;;0.30;0.30;;;;;;;-5.44;98.54;101796.66;5070056;28;20178;-76
2022/12/18 00:14:26;;;;;;;1.13;1.03;;;;;;;-5.41;98.04;101798.13;5070172;28;20174;-76
2022/12/18 00:16:51;;;;;;;1.67;0.93;;;;;;;-5.33;97.84;101794.63;5070287;28;20661;-76
2022/12/18 00:19:17;;;;;;;3.13;2.93;;;;;;;-5.33;97.32;101806.09;5070183;28;20175;-76
2022/12/18 00:21:43;;;;;;;1.80;1.07;;;;;;;-5.25;97.06;101811.38;5070317;28;20513;-76
2022/12/18 00:24:10;;;;;;;1.60;1.50;;;;;;;-5.24;96.18;101818.34;5070338;28;20292;-76
2022/12/18 00:26:36;;;;;;;0.37;0.37;;;;;;;-5.21;96.15;101811.84;5070059;28;20182;-77
2022/12/18 00:29:05;;;;;;;1.47;1.37;;;;;;;-5.22;96.04;101808.34;5070251;28;20770;-77
2022/12/18 00:31:31;;;;;;;0.10;0.10;;;;;;;-5.19;95.94;101817.84;5069982;28;20963;-76
2022/12/18 00:33:57;;;;;;;1.53;1.33;;;;;;;-5.13;95.67;101825.97;5070068;28;20416;-76
2022/12/18 00:36:31;;;;;;;0.50;0.50;;;;;;;-4.99;95.29;101823.56;5070318;28;20177;-77
2022/12/18 00:38:58;;;;;;;0.67;0.67;;;;;;;-4.91;94.48;101816.38;5068812;28;20604;-77
2022/12/18 00:44:11;;;;;;;0.57;0.57;;;;;;;-5.12;93.15;101822.28;5069923;28;20380;-77
2022/12/18 00:46:36;;;;;;;7.33;3.40;;;;;;;-5.27;92.96;101824.03;5070107;28;20774;-76
2022/12/18 00:49:02;;;;;;;1.27;1.20;;;;;;;-5.38;93.65;101827.06;5071581;28;20415;-77
2022/12/18 00:51:27;;;;;;;0.43;0.43;;;;;;;-5.44;93.16;101835.75;5073685;28;20181;-76
2022/12/18 00:53:53;;;;;;;0.93;0.93;;;;;;;-5.55;93.40;101841.44;5073593;28;20262;-76
2022/12/18 00:56:18;;;;;;;1.30;1.20;;;;;;;-5.76;93.61;101842.03;5073061;28;20178;-76
2022/12/18 00:58:44;;;;;;;1.53;1.43;;;;;;;-5.88;94.35;101846.03;5073141;28;20171;-76
2022/12/18 01:01:09;;;;;;;2.80;1.53;;;;;;;-5.77;94.44;101845.69;5073079;28;20253;-76
2022/12/18 01:03:34;;;;;;;0.30;0.30;;;;;;;-5.70;95.05;101833.34;5072737;28;20221;-76
2022/12/18 01:06:06;;;;;;;1.03;0.60;;;;;;;-5.61;95.56;101826.19;5072890;28;20217;-76
2022/12/18 01:08:31;;;;;;;6.50;0.57;;;;;;;-5.51;96.21;101827.63;5072971;28;20202;-75
2022/12/18 01:10:56;;;;;;;0.27;0.27;;;;;;;-5.41;95.46;101824.75;5072733;28;20417;-76
2022/12/18 01:13:22;;;;;;;0.70;0.70;;;;;;;-5.40;95.96;101832.56;5072677;28;20174;-76
2022/12/18 01:15:50;;;;;;;0.00;0.00;;;;;;;-5.39;95.22;101830.75;5071467;28;20174;-76
2022/12/18 01:18:16;;;;;;;0.17;0.17;;;;;;;-5.36;95.06;101841.03;5073071;28;20256;-76
2022/12/18 01:20:42;;;;;;;0.00;0.00;;;;;;;-5.44;95.16;101844.56;5072926;28;20909;-76
2022/12/18 01:23:07;;;;;;;0.37;0.37;;;;;;;-5.48;94.45;101842.44;5072540;28;20201;-76
2022/12/18 01:25:32;;;;;;;0.60;0.60;;;;;;;-5.61;94.56;101847.47;5072555;28;20177;-76
2022/12/18 01:27:58;;;;;;;0.97;0.97;;;;;;;-5.68;93.97;101848.13;5072425;28;20311;-76
2022/12/18 01:30:23;;;;;;;0.73;0.73;;;;;;;-5.75;94.09;101847.16;5071303;28;20175;-76
2022/12/18 01:32:48;;;;;;;0.47;0.47;;;;;;;-5.76;95.35;101845.50;5071015;28;20228;-76
2022/12/18 01:35:14;;;;;;;0.10;0.10;;;;;;;-5.77;95.30;101854.50;5072644;28;20170;-76
2022/12/18 01:37:39;;;;;;;0.30;0.30;;;;;;;-5.74;95.50;101848.00;5072479;28;20181;-76
2022/12/18 01:40:05;;;;;;;0.73;0.73;;;;;;;-5.79;95.78;101843.16;5072513;28;20179;-76
2022/12/18 01:42:30;;;;;;;1.00;0.83;;;;;;;-5.90;95.74;101848.88;5074341;28;20386;-76
2022/12/18 01:45:00;;;;;;;0.40;0.40;;;;;;;-5.98;96.24;101853.38;5077369;28;20424;-76
2022/12/18 01:47:28;;;;;;;4.53;1.47;;;;;;;-5.97;96.41;101858.53;5072273;28;20194;-77
2022/12/18 01:49:55;;;;;;;0.10;0.10;;;;;;;-5.94;96.25;101860.84;5072326;28;20896;-76
2022/12/18 01:52:21;;;;;;;0.20;0.20;;;;;;;-5.88;97.42;101856.66;5072074;28;20425;-76
2022/12/18 01:54:49;;;;;;;1.80;0.60;;;;;;;-5.82;97.78;101861.31;5070740;28;20436;-76
2022/12/18 01:57:15;;;;;;;3.27;2.17;;;;;;;-5.79;97.34;101864.44;5072696;28;20764;-76
2022/12/18 01:59:45;;;;;;;0.60;0.40;;;;;;;-5.76;97.64;101860.66;5070287;28;20824;-76
2022/12/18 02:02:11;;;;;;;0.00;0.00;;;;;;;-5.78;98.30;101862.66;5071949;28;20170;-76
2022/12/18 02:04:36;;;;;;;1.27;1.27;;;;;;;-5.86;98.13;101862.66;5071675;28;20427;-76
2022/12/18 02:07:07;;;;;;;0.80;0.80;;;;;;;-5.94;97.03;101857.34;5071731;28;20456;-76
2022/12/18 02:09:39;;;;;;;3.40;3.20;;;;;;;-6.04;97.94;101861.03;5071861;28;20254;-77
2022/12/18 02:12:18;;;;;;;1.17;1.17;;;;;;;-6.15;96.99;101858.72;5071872;28;20504;-76
2022/12/18 02:14:58;;;;;;;0.00;0.00;;;;;;;-6.27;97.08;101853.88;5071609;28;20461;-76
2022/12/18 02:17:47;;;;;;;0.77;0.77;;;;;;;-6.36;97.32;101858.41;5071749;28;20722;-76
2022/12/18 02:20:24;;;;;;;0.10;0.10;;;;;;;-6.42;97.70;101861.69;5071607;28;20892;-76
2022/12/18 02:23:12;;;;;;;0.10;0.10;;;;;;;-6.43;97.36;101846.75;5071578;28;20503;-77
2022/12/18 02:25:55;;;;;;;0.00;0.00;;;;;;;-6.45;98.52;101859.38;5071434;28;20516;-77
2022/12/18 02:28:26;;;;;;;1.50;1.20;;;;;;;-6.40;99.03;101854.38;5071384;28;20895;-76
2022/12/18 02:30:56;;;;;;;4.23;1.90;;;;;;;-6.36;99.17;101851.25;5071314;28;20421;-76
2022/12/18 02:33:23;;;;;;;0.40;0.40;;;;;;;-6.37;99.11;101856.72;5071048;28;20922;-76
2022/12/18 02:35:51;;;;;;;0.00;0.00;;;;;;;-6.33;99.16;101848.25;5071115;28;20421;-77
2022/12/18 02:38:17;;;;;;;0.00;0.00;;;;;;;-6.27;99.47;101840.59;5071259;28;20973;-76
2022/12/18 02:40:43;;;;;;;0.00;0.00;;;;;;;-6.17;100.00;101844.75;5071061;28;20421;-76
2022/12/18 02:43:13;;;;;;;0.10;0.10;;;;;;;-6.06;100.00;101847.09;5070886;28;20186;-76
2022/12/18 02:45:55;;;;;;;0.00;0.00;;;;;;;-5.97;100.00;101842.56;5069681;28;20417;-76
2022/12/18 02:48:25;;;;;;;0.00;0.00;;;;;;;-5.97;100.00;101847.88;5071015;28;20990;-76
2022/12/18 02:51:00;;;;;;;0.43;0.43;;;;;;;-5.98;100.00;101832.09;5071008;28;20619;-77
2022/12/18 02:53:36;;;;;;;1.27;1.27;;;;;;;-6.05;100.00;101837.28;5069476;28;20420;-76
2022/12/18 02:56:11;;;;;;;0.00;0.00;;;;;;;-6.13;99.55;101832.78;5070863;28;20408;-76
2022/12/18 02:58:57;;;;;;;0.00;0.00;;;;;;;-6.17;98.93;101842.09;5070777;28;20427;-76
2022/12/18 03:01:33;;;;;;;0.00;0.00;;;;;;;-6.09;99.20;101841.25;5069533;28;20424;-76
2022/12/18 03:04:04;;;;;;;0.00;0.00;;;;;;;-6.12;99.64;101833.59;5070590;28;20429;-76
2022/12/18 03:06:32;;;;;;;0.30;0.30;;;;;;;-6.06;99.86;101838.28;5069372;28;20413;-77
2022/12/18 03:09:07;;;;;;;0.00;0.00;;;;;;;-6.03;99.60;101836.09;5070871;28;20487;-76
2022/12/18 03:14:23;;;;;;;0.97;0.97;;;;;;;-6.03;98.94;101836.09;5070543;28;20412;-76
2022/12/18 03:16:52;;;;;;;0.40;0.40;;;;;;;-5.95;99.23;101837.91;5070753;28;20486;-76
2022/12/18 03:19:22;;;;;;;0.00;0.00;;;;;;;-5.92;99.43;101831.44;5070666;28;20440;-76
2022/12/18 03:21:54;;;;;;;0.20;0.20;;;;;;;-5.85;99.98;101835.03;5069201;28;20425;-77
2022/12/18 03:24:22;;;;;;;1.43;1.30;;;;;;;-5.76;99.79;101842.03;5070730;28;20452;-76
2022/12/18 03:26:53;;;;;;;0.10;0.10;;;;;;;-5.70;100.00;101822.69;5070354;28;20959;-76
2022/12/18 03:29:24;;;;;;;0.00;0.00;;;;;;;-5.72;99.30;101824.69;5070551;28;20429;-76
2022/12/18 03:31:55;;;;;;;0.00;0.00;;;;;;;-5.72;99.62;101827.34;5069290;28;20420;-76
2022/12/18 03:34:26;;;;;;;0.67;0.63;;;;;;;-5.62;100.00;101832.50;5070169;28;20425;-77
2022/12/18 03:36:51;;;;;;;3.80;2.03;;;;;;;-5.46;99.63;101835.94;5070301;28;20425;-76
2022/12/18 03:39:19;;;;;;;0.83;0.83;;;;;;;-5.29;99.83;101838.53;5069079;28;20431;-76
2022/12/18 03:42:19;;;;;;;0.00;0.00;;;;;;;-5.21;99.52;101835.81;5070625;28;20202;-76
2022/12/18 03:44:57;;;;;;;0.77;0.77;;;;;;;-5.22;98.52;101834.16;5070509;28;20489;-76
2022/12/18 03:47:38;;;;;;;0.27;0.27;;;;;;;-5.19;97.88;101831.19;5070191;28;20474;-76
2022/12/18 03:50:18;;;;;;;2.87;2.67;;;;;;;-5.24;97.86;101829.00;5070395;28;20777;-76
2022/12/18 03:52:47;;;;;;;1.33;1.23;;;;;;;-5.28;97.39;101832.19;5069962;28;20478;-76
2022/12/18 03:55:12;;;;;;;2.27;2.13;;;;;;;-5.30;96.90;101829.72;5068913;28;20482;-76
2022/12/18 03:57:39;;;;;;;3.80;2.03;;;;;;;-5.19;96.81;101833.84;5068697;28;20432;-76
2022/12/18 04:00:08;;;;;;;0.47;0.47;;;;;;;-5.20;96.53;101825.03;5070651;28;20175;-77
2022/12/18 04:02:37;;;;;;;5.00;3.67;;;;;;;-5.22;96.17;101820.84;5069759;28;20931;-77
2022/12/18 04:05:06;;;;;;;0.60;0.60;;;;;;;-5.22;96.15;101820.84;5070201;28;20420;-77
2022/12/18 04:07:32;;;;;;;4.83;0.73;;;;;;;-5.25;95.85;101824.69;5068644;28;20464;-77
2022/12/18 04:09:59;;;;;;;1.43;1.33;;;;;;;-5.30;96.03;101834.22;5070018;28;20424;-76
2022/12/18 04:12:26;;;;;;;0.10;0.10;;;;;;;-5.26;95.65;101838.19;5069840;28;20544;-76
2022/12/18 04:14:51;;;;;;;0.20;0.20;;;;;;;-5.29;96.25;101834.03;5069870;28;20413;-77
2022/12/18 04:17:17;;;;;;;0.00;0.00;;;;;;;-5.22;95.73;101836.81;5069878;28;20428;-77
2022/12/18 04:19:42;;;;;;;1.07;1.07;;;;;;;-5.26;95.71;101840.84;5070037;28;20170;-77
2022/12/18 04:22:10;;;;;;;0.00;0.00;;;;;;;-5.33;95.54;101835.41;5068752;28;20208;-77
2022/12/18 04:24:35;;;;;;;1.97;1.87;;;;;;;-5.41;95.80;101843.41;5072155;28;20516;-77
2022/12/18 04:27:00;;;;;;;1.10;1.03;;;;;;;-5.34;95.78;101843.56;5073623;28;20557;-77
2022/12/18 04:29:26;;;;;;;0.17;0.17;;;;;;;-5.34;95.11;101844.38;5073773;28;20171;-77
2022/12/18 04:31:51;;;;;;;0.00;0.00;;;;;;;-5.23;95.66;101840.50;5072499;28;20178;-76
2022/12/18 04:34:16;;;;;;;0.00;0.00;;;;;;;-5.21;95.24;101838.47;5073517;28;20232;-77
2022/12/18 04:36:41;;;;;;;0.00;0.00;;;;;;;-5.30;95.14;101843.03;5073496;28;20623;-77
2022/12/18 04:39:07;;;;;;;0.87;0.87;;;;;;;-5.24;94.45;101844.16;5073556;28;20204;-77
2022/12/18 04:41:32;;;;;;;0.00;0.00;;;;;;;-5.24;94.74;101839.66;5073412;28;20178;-77
2022/12/18 04:43:57;;;;;;;0.00;0.00;;;;;;;-5.31;94.59;101833.38;5071971;28;20210;-77
2022/12/18 04:46:23;;;;;;;0.30;0.23;;;;;;;-5.34;94.74;101835.56;5073434;28;20178;-77
2022/12/18 04:48:48;;;;;;;0.03;0.03;;;;;;;-5.40;94.79;101831.75;5073406;28;20210;-77
2022/12/18 04:51:13;;;;;;;0.00;0.00;;;;;;;-5.32;94.55;101828.22;5073455;28;20183;-78
2022/12/18 04:53:39;;;;;;;0.00;0.00;;;;;;;-5.38;94.89;101832.41;5073133;28;20182;-77
2022/12/18 04:56:10;;;;;;;1.60;1.13;;;;;;;-5.18;94.51;101838.16;5073026;28;20175;-78
2022/12/18 04:58:36;;;;;;;0.33;0.33;;;;;;;-5.08;94.22;101828.09;5073568;28;20292;-77
2022/12/18 05:01:02;;;;;;;0.23;0.23;;;;;;;-5.04;93.55;101832.09;5073207;28;20914;-76
2022/12/18 05:03:27;;;;;;;3.07;2.33;;;;;;;-5.03;93.10;101836.41;5072835;28;20436;-76
2022/12/18 05:05:53;;;;;;;1.60;1.50;;;;;;;-5.05;93.07;101832.28;5072818;28;20171;-77
2022/12/18 05:08:18;;;;;;;2.60;1.93;;;;;;;-5.08;92.40;101830.75;5071999;28;20206;-76
2022/12/18 05:10:44;;;;;;;1.03;1.03;;;;;;;-5.02;92.41;101831.91;5072886;28;20188;-76
2022/12/18 05:13:09;;;;;;;1.03;0.83;;;;;;;-5.01;92.24;101823.75;5073057;28;20183;-77
2022/12/18 05:15:35;;;;;;;0.57;0.57;;;;;;;-5.09;91.92;101832.59;5073234;28;20527;-76
2022/12/18 05:18:00;;;;;;;0.00;0.00;;;;;;;-5.08;92.04;101838.75;5072938;28;20171;-78
2022/12/18 05:20:27;;;;;;;1.80;0.77;;;;;;;-5.01;91.79;101846.91;5073003;28;20190;-79
2022/12/18 05:22:53;;;;;;;1.33;1.23;;;;;;;-4.91;91.56;101847.53;5072766;28;20182;-79
2022/12/18 05:25:19;;;;;;;0.00;0.00;;;;;;;-4.90;91.44;101841.19;5072674;28;20817;-78
2022/12/18 05:27:45;;;;;;;2.37;0.80;;;;;;;-4.84;90.62;101841.28;5073057;28;20460;-78
2022/12/18 05:30:11;;;;;;;0.00;0.00;;;;;;;-4.90;90.50;101847.34;5073336;28;20811;-77
2022/12/18 05:32:37;;;;;;;0.13;0.13;;;;;;;-4.90;90.35;101847.34;5072871;28;20190;-78
2022/12/18 05:35:04;;;;;;;0.00;0.00;;;;;;;-4.89;90.48;101849.00;5072964;28;20413;-78
2022/12/18 05:37:29;;;;;;;0.60;0.60;;;;;;;-4.81;90.31;101853.44;5073038;28;20270;-77
2022/12/18 05:39:54;;;;;;;0.00;0.00;;;;;;;-4.85;89.72;101844.97;5073253;28;20520;-77
2022/12/18 05:42:20;;;;;;;0.57;0.53;;;;;;;-4.83;90.00;101853.63;5072834;28;20182;-77
2022/12/18 05:44:45;;;;;;;1.13;1.07;;;;;;;-4.83;89.19;101852.78;5072569;28;20229;-77
2022/12/18 05:47:10;;;;;;;1.53;1.43;;;;;;;-4.82;89.39;101857.94;5072627;28;20707;-76
2022/12/18 05:49:35;;;;;;;10.23;2.93;;;;;;;-4.72;89.24;101859.56;5072674;28;20253;-77
2022/12/18 05:52:01;;;;;;;1.50;1.30;;;;;;;-4.69;89.34;101860.03;5072708;28;20181;-78
2022/12/18 05:54:29;;;;;;;1.23;1.17;;;;;;;-4.73;89.22;101864.06;5072215;28;20538;-77
2022/12/18 05:56:55;;;;;;;1.03;1.03;;;;;;;-4.67;88.84;101865.19;5072505;28;20171;-77
2022/12/18 05:59:20;;;;;;;1.40;1.30;;;;;;;-4.63;88.85;101874.47;5072722;28;20804;-76
2022/12/18 06:01:45;;;;;;;0.80;0.80;;;;;;;-4.62;88.64;101869.00;5072454;28;20174;-78
2022/12/18 06:04:11;;;;;;;0.10;0.10;;;;;;;-4.55;88.33;101885.13;5072180;28;20214;-78
2022/12/18 06:06:36;;;;;;;0.63;0.63;;;;;;;-4.51;87.96;101889.91;5070805;28;20174;-79
2022/12/18 06:09:08;;;;;;;0.93;0.93;;;;;;;-4.50;88.27;101885.41;5070904;28;20604;-80
2022/12/18 06:11:35;;;;;;;0.60;0.60;;;;;;;-4.55;87.89;101883.28;5070856;28;20179;-79
2022/12/18 06:14:01;;;;;;;0.87;0.87;;;;;;;-4.54;87.88;101881.44;5071802;28;20463;-79
2022/12/18 06:16:27;;;;;;;0.20;0.20;;;;;;;-4.55;87.39;101882.44;5071880;28;20472;-76
2022/12/18 06:18:52;;;;;;;0.63;0.63;;;;;;;-4.63;87.30;101877.16;5070719;28;20178;-87
2022/12/18 06:21:18;;;;;;;1.23;1.23;;;;;;;-4.59;87.71;101881.16;5071998;28;20442;-80
2022/12/18 06:23:43;;;;;;;0.30;0.30;;;;;;;-4.57;87.29;101887.13;5070306;28;20181;-79
2022/12/18 06:26:11;;;;;;;0.73;0.73;;;;;;;-4.61;87.27;101888.50;5071801;28;20660;-78
2022/12/18 06:28:36;;;;;;;0.00;0.00;;;;;;;-4.63;87.53;101887.81;5071773;28;20198;-79
2022/12/18 06:31:06;;;;;;;0.10;0.10;;;;;;;-4.72;87.98;101876.38;5071882;28;20421;-79
2022/12/18 06:33:31;;;;;;;0.00;0.00;;;;;;;-4.74;87.80;101867.75;5071540;28;20174;-78
2022/12/18 06:36:06;;;;;;;0.00;0.00;;;;;;;-4.79;87.96;101883.41;5071661;28;20774;-80
2022/12/18 06:38:33;;;;;;;0.30;0.30;;;;;;;-4.73;88.40;101880.06;5071468;28;20204;-79
2022/12/18 06:40:58;;;;;;;0.43;0.43;;;;;;;-4.75;88.19;101876.75;5071423;28;20417;-74
2022/12/18 06:43:23;;;;;;;0.40;0.40;;;;;;;-4.94;87.72;101880.66;5071342;28;20417;-78
2022/12/18 06:45:52;;;;;;;0.00;0.00;;;;;;;-4.97;88.24;101882.84;5070876;28;20280;-78
2022/12/18 06:48:20;;;;;;;0.00;0.00;;;;;;;-4.96;88.64;101879.16;5071002;28;20210;-75
2022/12/18 06:50:45;;;;;;;4.10;1.57;;;;;;;-4.89;88.81;101882.81;5071272;28;20871;-76
2022/12/18 06:53:11;;;;;;;0.03;0.03;;;;;;;-4.83;88.91;101890.94;5070778;28;20508;-77
2022/12/18 06:55:36;;;;;;;0.27;0.27;;;;;;;-4.81;89.01;101886.25;5069538;28;20183;-77
2022/12/18 06:58:02;;;;;;;0.00;0.00;;;;;;;-4.87;89.29;101891.47;5070955;28;20175;-77
2022/12/18 07:00:27;;;;;;;0.00;0.00;;;;;;;-4.93;89.52;101882.31;5071293;28;20174;-78
2022/12/18 07:02:52;;;;;;;0.50;0.50;;;;;;;-4.87;89.77;101894.13;5070627;28;20593;-78
2022/12/18 07:05:18;;;;;;;0.00;0.00;;;;;;;-4.79;89.42;101900.22;5069766;28;20213;-78
2022/12/18 07:07:43;;;;;;;0.00;0.00;;;;;;;-4.89;89.59;101896.13;5070829;28;20598;-78
2022/12/18 07:10:09;;;;;;;2.97;1.57;;;;;;;-4.78;90.05;101895.72;5069444;28;20235;-78
2022/12/18 07:12:35;;;;;;;0.30;0.30;;;;;;;-4.70;89.99;101902.88;5068880;28;20182;-78
2022/12/18 07:15:01;;;;;;;0.07;0.07;;;;;;;-4.69;90.06;101907.19;5070717;28;20503;-78
2022/12/18 07:17:26;;;;;;;1.60;1.50;;;;;;;-4.66;89.63;101901.50;5070799;28;20512;-78
2022/12/18 07:19:51;;;;;;;0.00;0.00;;;;;;;-4.65;89.74;101911.16;5071010;28;20261;-78
2022/12/18 07:22:17;;;;;;;0.83;0.83;;;;;;;-4.61;90.13;101917.81;5070664;28;20230;-78
2022/12/18 07:24:42;;;;;;;0.20;0.20;;;;;;;-4.52;90.16;101912.25;5070369;28;20209;-78
2022/12/18 07:27:07;;;;;;;3.63;0.93;;;;;;;-4.46;89.70;101907.22;5070613;28;20574;-78
2022/12/18 07:29:32;;;;;;;0.83;0.77;;;;;;;-4.52;90.20;101916.75;5070596;28;20182;-78
2022/12/18 07:31:58;;;;;;;0.10;0.10;;;;;;;-4.52;90.14;101917.59;5070691;28;20182;-78
2022/12/18 07:34:23;;;;;;;0.00;0.00;;;;;;;-4.48;89.47;101923.41;5070279;28;20201;-78
2022/12/18 07:36:48;;;;;;;0.00;0.00;;;;;;;-4.51;90.06;101919.25;5070506;28;20178;-77
2022/12/18 07:39:14;;;;;;;0.57;0.57;;;;;;;-4.40;90.09;101927.84;5069065;28;20178;-78
2022/12/18 07:41:42;;;;;;;0.10;0.10;;;;;;;-4.32;89.31;101922.47;5070272;28;20228;-78
2022/12/18 07:44:10;;;;;;;0.70;0.70;;;;;;;-4.23;89.28;101940.06;5070195;28;20170;-78
2022/12/18 07:46:35;;;;;;;0.53;0.53;;;;;;;-4.26;89.34;101935.94;5068959;28;20417;-78
2022/12/18 07:49:00;;;;;;;0.00;0.00;;;;;;;-4.26;89.35;101935.09;5070644;28;20464;-78
2022/12/18 07:51:25;;;;;;;0.40;0.40;;;;;;;-4.26;89.54;101932.44;5070369;28;20643;-77
2022/12/18 07:53:51;;;;;;;1.87;1.77;;;;;;;-4.17;89.46;101930.53;5069965;28;20181;-78
2022/12/18 07:56:16;;;;;;;1.13;1.00;;;;;;;-4.07;88.69;101928.44;5070250;28;20634;-78
2022/12/18 07:58:41;;;;;;;0.20;0.20;;;;;;;-4.03;88.69;101925.28;5070240;28;20174;-78
2022/12/18 08:01:11;;;;;;;7.83;4.53;;;;;;;-4.01;88.51;101922.41;5074578;28;20689;-78
2022/12/18 08:03:37;;;;;;;0.00;0.00;;;;;;;-4.01;88.65;101925.09;5074221;28;20222;-77
2022/12/18 08:06:06;;;;;;;0.50;0.50;;;;;;;-4.04;88.83;101914.78;5074246;28;20421;-77
2022/12/18 08:08:32;;;;;;;1.47;1.20;;;;;;;-4.10;89.09;101912.81;5074544;28;20467;-77
2022/12/18 08:10:57;;;;;;;1.47;1.37;;;;;;;-4.14;89.22;101912.34;5074399;28;20420;-77
2022/12/18 08:13:23;;;;;;;0.10;0.10;;;;;;;-4.11;89.48;101913.81;5073839;28;20634;-77
2022/12/18 08:15:59;;;;;;;3.33;1.60;;;;;;;-4.01;89.44;101909.91;5074041;28;20205;-76
2022/12/18 08:18:25;;;;;;;0.73;0.73;;;;;;;-4.06;89.49;101906.91;5074058;28;20236;-76
2022/12/18 08:20:50;;;;;;;0.20;0.20;;;;;;;-4.07;89.66;101899.09;5073901;28;20970;-76
2022/12/18 08:23:16;;;;;;;1.63;1.53;;;;;;;-4.02;89.41;101900.25;5073751;28;20178;-76
2022/12/18 08:25:41;;;;;;;0.43;0.43;;;;;;;-4.05;89.36;101900.59;5073996;28;20170;-76
2022/12/18 08:28:06;;;;;;;2.30;0.40;;;;;;;-4.06;89.36;101896.25;5074393;28;20650;-77
2022/12/18 08:30:31;;;;;;;1.33;1.23;;;;;;;-4.07;89.68;101883.91;5074000;28;20179;-77
2022/12/18 08:32:57;;;;;;;0.43;0.43;;;;;;;-4.05;89.73;101886.41;5072573;28;20182;-77
2022/12/18 08:35:23;;;;;;;2.53;0.87;;;;;;;-3.96;89.66;101891.50;5077641;28;20166;-77
2022/12/18 08:37:48;;;;;;;0.23;0.23;;;;;;;-3.91;89.54;101881.13;5072545;28;21066;-77
2022/12/18 08:40:13;;;;;;;0.40;0.40;;;;;;;-3.94;89.72;101880.63;5073611;28;20622;-77
2022/12/18 08:45:23;;;;;;;0.23;0.17;;;;;;;-3.81;88.83;101888.88;5073849;28;20237;-77
2022/12/18 08:47:48;;;;;;;0.10;0.10;;;;;;;-3.81;88.74;101883.53;5073367;28;20464;-77
2022/12/18 08:50:14;;;;;;;0.77;0.20;;;;;;;-3.76;88.64;101880.28;5073437;28;20421;-77
2022/12/18 08:52:40;;;;;;;1.00;0.63;;;;;;;-3.72;88.65;101876.28;5073650;28;20261;-76
2022/12/18 08:55:05;;;;;;;0.00;0.00;;;;;;;-3.66;87.89;101872.88;5073345;28;20511;-76
2022/12/18 08:57:31;;;;;;;0.10;0.10;;;;;;;-3.58;88.02;101871.97;5073340;28;20181;-77
2022/12/18 08:59:56;;;;;;;0.47;0.47;;;;;;;-3.54;87.47;101873.25;5073288;28;20582;-75
2022/12/18 09:02:21;;;;;;;0.30;0.30;;;;;;;-3.53;87.36;101881.06;5073461;28;20657;-76
2022/12/18 09:04:47;;;;;;;6.60;1.60;;;;;;;-3.46;87.16;101878.53;5073026;28;20183;-76
2022/12/18 09:07:13;;;;;;;0.27;0.27;;;;;;;-3.49;86.69;101877.03;5072975;28;20174;-77
2022/12/18 09:09:38;;;;;;;0.17;0.17;;;;;;;-3.38;86.69;101883.75;5072675;28;20193;-76
2022/12/18 09:12:03;;;;;;;0.00;0.00;;;;;;;-3.36;86.62;101879.06;5072436;28;20182;-77
2022/12/18 09:14:28;;;;;;;0.43;0.43;;;;;;;-3.25;86.01;101875.09;5072800;28;20186;-76
2022/12/18 09:16:54;;;;;;;0.00;0.00;;;;;;;-3.19;86.08;101874.34;5072995;28;20225;-77
2022/12/18 09:19:19;;;;;;;0.10;0.10;;;;;;;-3.07;85.14;101872.88;5072869;28;20182;-77
2022/12/18 09:21:45;;;;;;;9.10;0.57;;;;;;;-3.00;84.76;101871.13;5073038;28;20185;-77
2022/12/18 09:24:13;;;;;;;0.00;0.00;;;;;;;-2.88;84.36;101871.47;5072540;28;20202;-76
2022/12/18 09:26:38;;;;;;;0.00;0.00;;;;;;;-2.77;83.56;101860.25;5072710;28;20175;-77
2022/12/18 09:29:04;;;;;;;0.50;0.50;;;;;;;-2.62;82.82;101854.88;5072612;28;20962;-76
2022/12/18 09:31:30;;;;;;;0.00;0.00;;;;;;;-2.64;82.36;101847.03;5072733;28;20171;-77
2022/12/18 09:33:56;;;;;;;0.00;0.00;;;;;;;-2.66;82.30;101843.72;5072561;28;20739;-79
2022/12/18 09:36:21;;;;;;;0.30;0.10;;;;;;;-2.58;81.83;101856.16;5072488;28;20171;-77
2022/12/18 09:38:46;;;;;;;1.17;1.17;;;;;;;-2.50;81.95;101854.19;5071344;28;20939;-76
2022/12/18 09:41:38;;;;;;;0.00;0.00;;;;;;;-2.44;81.62;101857.97;5071194;28;20187;-77
2022/12/18 09:44:18;;;;;;;0.50;0.50;;;;;;;-2.41;81.62;101850.38;5072375;28;20198;-78
2022/12/18 09:46:49;;;;;;;4.07;0.47;;;;;;;-2.46;80.70;101862.66;5071076;28;20460;-78
2022/12/18 09:49:20;;;;;;;0.00;0.00;;;;;;;-2.50;80.35;101864.88;5070931;28;20472;-77
2022/12/18 09:51:52;;;;;;;0.00;0.00;;;;;;;-2.48;80.57;101867.38;5073036;28;20900;-77
2022/12/18 09:54:29;;;;;;;0.93;0.93;;;;;;;-2.39;80.74;101868.91;5077219;28;20408;-77
2022/12/18 09:56:54;;;;;;;1.37;1.27;;;;;;;-2.24;80.35;101872.34;5073195;28;20408;-79
2022/12/18 09:59:24;;;;;;;0.00;0.00;;;;;;;-2.06;79.36;101877.25;5072147;28;20448;-78
2022/12/18 10:01:49;;;;;;;0.00;0.00;;;;;;;-1.96;78.78;101877.75;5072595;28;20179;-78
2022/12/18 10:04:15;;;;;;;1.23;1.03;;;;;;;-1.83;78.66;101883.22;5071582;28;20485;-78
2022/12/18 10:06:43;;;;;;;0.00;0.00;;;;;;;-1.81;77.73;101883.84;5072258;28;20527;-78
2022/12/18 10:09:23;;;;;;;1.87;1.20;;;;;;;-1.66;77.31;101870.34;5071943;28;20256;-77
2022/12/18 10:12:06;;;;;;;1.70;1.70;;;;;;;-1.63;77.52;101869.97;5071867;28;20465;-78
2022/12/18 10:14:47;;;;;;;0.67;0.57;;;;;;;-1.58;77.56;101872.06;5071614;28;20899;-78
2022/12/18 10:17:38;;;;;;;0.10;0.10;;;;;;;-1.53;77.12;101861.59;5071791;28;20767;-78
2022/12/18 10:20:46;;;;;;;0.30;0.30;;;;;;;-1.39;76.49;101870.53;5071764;28;20747;-78
2022/12/18 10:23:34;;;;;;;0.00;0.00;;;;;;;-1.42;75.64;101860.22;5071191;28;20412;-78
2022/12/18 10:26:12;;;;;;;0.00;0.00;;;;;;;-1.41;75.58;101853.81;5071816;28;20424;-78
2022/12/18 10:28:40;;;;;;;1.33;1.23;;;;;;;-1.32;74.94;101868.72;5071465;28;20514;-78
2022/12/18 10:31:07;;;;;;;0.03;0.03;;;;;;;-1.29;74.47;101874.53;5071776;28;20417;-78
2022/12/18 10:33:34;;;;;;;0.00;0.00;;;;;;;-1.34;74.74;101860.03;5071272;28;20413;-78
2022/12/18 10:36:00;;;;;;;0.00;0.00;;;;;;;-1.31;74.77;101852.41;5071329;28;20424;-78
2022/12/18 10:38:31;;;;;;;0.00;0.00;;;;;;;-1.32;75.35;101850.75;5071772;28;20428;-77
2022/12/18 10:41:27;;;;;;;0.00;0.00;;;;;;;-1.17;75.78;101858.69;5071404;28;20177;-78
2022/12/18 10:44:12;;;;;;;0.00;0.00;;;;;;;-1.14;75.05;101861.00;5071203;28;20900;-78
2022/12/18 10:46:37;;;;;;;0.00;0.00;;;;;;;-1.01;74.88;101873.63;5071096;28;20417;-78
2022/12/18 10:49:04;;;;;;;0.70;0.37;;;;;;;-1.01;74.19;101869.09;5071130;28;20529;-78
2022/12/18 10:51:35;;;;;;;0.00;0.00;;;;;;;-0.91;74.28;101866.03;5070073;28;20559;-78
2022/12/18 10:54:04;;;;;;;0.00;0.00;;;;;;;-0.83;74.25;101862.34;5069506;28;20417;-78
2022/12/18 10:56:33;;;;;;;0.00;0.00;;;;;;;-0.97;74.15;101856.94;5071018;28;20447;-78
2022/12/18 10:59:10;;;;;;;0.00;0.00;;;;;;;-0.87;73.94;101853.03;5069665;28;20465;-78
2022/12/18 11:01:55;;;;;;;0.00;0.00;;;;;;;-0.71;73.55;101840.09;5070981;28;20495;-78
2022/12/18 11:04:23;;;;;;;0.00;0.00;;;;;;;-0.72;73.20;101833.09;5070372;28;20490;-78
2022/12/18 11:07:06;;;;;;;0.40;0.40;;;;;;;-0.74;71.97;101827.06;5070771;28;20988;-78
2022/12/18 11:09:36;;;;;;;0.10;0.10;;;;;;;-0.57;72.38;101821.34;5070786;28;20412;-78
2022/12/18 11:12:10;;;;;;;0.00;0.00;;;;;;;-0.64;71.76;101811.41;5070412;28;20453;-77
2022/12/18 11:14:41;;;;;;;0.03;0.03;;;;;;;-0.71;71.87;101807.06;5070823;28;20405;-77
2022/12/18 11:17:22;;;;;;;0.00;0.00;;;;;;;-0.48;72.62;101807.50;5070567;28;20421;-78
2022/12/18 11:20:23;;;;;;;0.00;0.00;;;;;;;-0.53;72.42;101803.81;5069235;28;20800;-77
2022/12/18 11:23:11;;;;;;;0.20;0.20;;;;;;;-0.35;71.90;101810.22;5047269;28;20428;-77
2022/12/18 11:25:38;;;;;;;0.00;0.00;;;;;;;-0.42;72.09;101812.09;5070500;28;20429;-78
2022/12/18 11:28:24;;;;;;;0.00;0.00;;;;;;;-0.34;71.11;101811.03;5069486;28;20868;-77
2022/12/18 11:31:16;;;;;;;0.40;0.40;;;;;;;-0.24;71.61;101816.00;5070439;28;20413;-77
2022/12/18 11:33:47;;;;;;;0.00;0.00;;;;;;;-0.26;71.69;101813.53;5068738;28;20417;-78
2022/12/18 11:36:14;;;;;;;0.20;0.20;;;;;;;-0.33;71.21;101816.19;5068935;28;20512;-77
2022/12/18 11:38:42;;;;;;;0.00;0.00;;;;;;;-0.45;70.56;101817.84;5070405;28;20409;-78
2022/12/18 11:42:08;;;;;;;0.10;0.10;;;;;;;-0.50;70.21;101814.13;5070235;28;20500;-77